sensor_id;sensor_type;location;lat;lon;timestamp;temperature;humidity
1680;DHT22;838;51.794;12.258;2023-07-13T00:00:26;20.50;1.00
1680;DHT22;838;51.794;12.258;2023-07-13T00:02:52;20.80;1.00
1680;DHT22;838;51.794;12.258;2023-07-13T00:05:23;20.90;1.00
1680;DHT22;838;51.794;12.258;2023-07-13T00:07:52;20.80;1.00
1680;DHT22;838;51.794;12.258;2023-07-13T00:10:20;20.70;1.00
1680;DHT22;838;51.794;12.258;2023-07-13T00:12:45;20.70;1.00
1680;DHT22;838;51.794;12.258;2023-07-13T00:15:24;20.80;1.00
1680;DHT22;838;51.794;12.258;2023-07-13T00:17:54;20.90;1.00
1680;DHT22;838;51.794;12.258;2023-07-13T00:20:22;20.80;1.00
1680;DHT22;838;51.794;12.258;2023-07-13T00:22:52;20.50;1.00
1680;DHT22;838;51.794;12.258;2023-07-13T00:25:21;20.40;1.00
1680;DHT22;838;51.794;12.258;2023-07-13T00:27:53;20.50;1.00
1680;DHT22;838;51.794;12.258;2023-07-13T00:30:29;20.80;1.00
1680;DHT22;838;51.794;12.258;2023-07-13T00:33:18;21.10;1.00
1680;DHT22;838;51.794;12.258;2023-07-13T00:35:44;21.40;1.00
1680;DHT22;838;51.794;12.258;2023-07-13T00:38:19;21.50;1.00
1680;DHT22;838;51.794;12.258;2023-07-13T00:41:07;21.60;1.00
1680;DHT22;838;51.794;12.258;2023-07-13T00:43:38;21.70;1.00
1680;DHT22;838;51.794;12.258;2023-07-13T00:46:18;21.60;1.00
1680;DHT22;838;51.794;12.258;2023-07-13T00:48:56;21.30;1.00
1680;DHT22;838;51.794;12.258;2023-07-13T00:51:28;20.90;1.00
1680;DHT22;838;51.794;12.258;2023-07-13T00:54:00;20.80;1.00
1680;DHT22;838;51.794;12.258;2023-07-13T00:56:54;20.60;1.00
1680;DHT22;838;51.794;12.258;2023-07-13T00:59:24;20.50;1.00
1680;DHT22;838;51.794;12.258;2023-07-13T01:01:51;20.40;1.00
1680;DHT22;838;51.794;12.258;2023-07-13T01:04:24;20.40;1.00
1680;DHT22;838;51.794;12.258;2023-07-13T01:07:11;20.60;1.00
1680;DHT22;838;51.794;12.258;2023-07-13T01:09:46;20.80;1.00
1680;DHT22;838;51.794;12.258;2023-07-13T01:12:15;21.00;1.00
1680;DHT22;838;51.794;12.258;2023-07-13T01:14:44;20.80;1.00
1680;DHT22;838;51.794;12.258;2023-07-13T01:17:10;20.60;1.00
1680;DHT22;838;51.794;12.258;2023-07-13T01:19:45;20.60;1.00
1680;DHT22;838;51.794;12.258;2023-07-13T01:22:15;20.70;1.00
1680;DHT22;838;51.794;12.258;2023-07-13T01:24:44;20.80;1.00
1680;DHT22;838;51.794;12.258;2023-07-13T01:27:12;20.80;1.00
1680;DHT22;838;51.794;12.258;2023-07-13T01:29:44;20.90;1.00
1680;DHT22;838;51.794;12.258;2023-07-13T01:32:17;20.90;1.00
1680;DHT22;838;51.794;12.258;2023-07-13T01:34:48;20.70;1.00
1680;DHT22;838;51.794;12.258;2023-07-13T01:37:14;20.60;1.00
1680;DHT22;838;51.794;12.258;2023-07-13T01:39:40;20.60;1.00
1680;DHT22;838;51.794;12.258;2023-07-13T01:42:06;20.60;1.00
1680;DHT22;838;51.794;12.258;2023-07-13T01:44:32;20.40;1.00
1680;DHT22;838;51.794;12.258;2023-07-13T01:49:24;20.20;1.00
1680;DHT22;838;51.794;12.258;2023-07-13T01:51:50;20.20;1.00
1680;DHT22;838;51.794;12.258;2023-07-13T01:54:16;20.10;1.00
1680;DHT22;838;51.794;12.258;2023-07-13T01:56:41;20.10;1.00
1680;DHT22;838;51.794;12.258;2023-07-13T01:59:08;20.10;1.00
1680;DHT22;838;51.794;12.258;2023-07-13T02:01:34;20.10;1.00
1680;DHT22;838;51.794;12.258;2023-07-13T02:04:00;20.10;1.00
1680;DHT22;838;51.794;12.258;2023-07-13T02:06:26;20.10;1.00
1680;DHT22;838;51.794;12.258;2023-07-13T02:08:52;19.90;1.00
1680;DHT22;838;51.794;12.258;2023-07-13T02:11:18;19.80;1.10
1680;DHT22;838;51.794;12.258;2023-07-13T02:13:52;19.70;1.20
1680;DHT22;838;51.794;12.258;2023-07-13T02:16:18;19.40;1.70
1680;DHT22;838;51.794;12.258;2023-07-13T02:18:44;19.00;5.10
1680;DHT22;838;51.794;12.258;2023-07-13T02:21:09;18.70;7.20
1680;DHT22;838;51.794;12.258;2023-07-13T02:23:35;18.40;9.90
1680;DHT22;838;51.794;12.258;2023-07-13T02:26:03;18.10;13.10
1680;DHT22;838;51.794;12.258;2023-07-13T02:28:38;18.10;13.10
1680;DHT22;838;51.794;12.258;2023-07-13T02:31:12;18.20;13.00
1680;DHT22;838;51.794;12.258;2023-07-13T02:33:44;18.20;12.60
1680;DHT22;838;51.794;12.258;2023-07-13T02:36:19;18.20;13.60
1680;DHT22;838;51.794;12.258;2023-07-13T02:38:45;18.50;11.80
1680;DHT22;838;51.794;12.258;2023-07-13T02:41:11;18.70;11.10
1680;DHT22;838;51.794;12.258;2023-07-13T02:43:38;18.80;11.00
1680;DHT22;838;51.794;12.258;2023-07-13T02:46:03;18.90;10.90
1680;DHT22;838;51.794;12.258;2023-07-13T02:48:36;19.00;10.10
1680;DHT22;838;51.794;12.258;2023-07-13T02:51:02;19.00;9.20
1680;DHT22;838;51.794;12.258;2023-07-13T02:53:27;18.90;8.60
1680;DHT22;838;51.794;12.258;2023-07-13T02:55:53;19.10;8.90
1680;DHT22;838;51.794;12.258;2023-07-13T02:58:19;19.00;9.70
1680;DHT22;838;51.794;12.258;2023-07-13T03:00:49;19.00;9.90
1680;DHT22;838;51.794;12.258;2023-07-13T03:03:16;19.00;10.30
1680;DHT22;838;51.794;12.258;2023-07-13T03:05:45;18.90;9.60
1680;DHT22;838;51.794;12.258;2023-07-13T03:08:15;19.00;9.10
1680;DHT22;838;51.794;12.258;2023-07-13T03:10:44;18.90;9.40
1680;DHT22;838;51.794;12.258;2023-07-13T03:13:09;18.80;9.40
1680;DHT22;838;51.794;12.258;2023-07-13T03:15:38;18.90;8.90
1680;DHT22;838;51.794;12.258;2023-07-13T03:18:07;18.90;7.90
1680;DHT22;838;51.794;12.258;2023-07-13T03:20:35;18.70;8.70
1680;DHT22;838;51.794;12.258;2023-07-13T03:23:02;18.40;9.00
1680;DHT22;838;51.794;12.258;2023-07-13T03:25:32;18.00;12.50
1680;DHT22;838;51.794;12.258;2023-07-13T03:27:58;17.90;12.90
1680;DHT22;838;51.794;12.258;2023-07-13T03:30:24;17.70;14.20
1680;DHT22;838;51.794;12.258;2023-07-13T03:32:50;17.70;14.80
1680;DHT22;838;51.794;12.258;2023-07-13T03:35:15;17.70;14.60
1680;DHT22;838;51.794;12.258;2023-07-13T03:37:47;17.90;13.50
1680;DHT22;838;51.794;12.258;2023-07-13T03:40:19;18.20;13.40
1680;DHT22;838;51.794;12.258;2023-07-13T03:42:45;18.50;11.20
1680;DHT22;838;51.794;12.258;2023-07-13T03:45:10;18.60;10.20
1680;DHT22;838;51.794;12.258;2023-07-13T03:47:36;18.80;10.10
1680;DHT22;838;51.794;12.258;2023-07-13T03:50:02;18.90;9.30
1680;DHT22;838;51.794;12.258;2023-07-13T03:52:29;18.80;10.00
1680;DHT22;838;51.794;12.258;2023-07-13T03:54:58;18.60;11.00
1680;DHT22;838;51.794;12.258;2023-07-13T03:57:23;18.60;11.10
1680;DHT22;838;51.794;12.258;2023-07-13T03:59:49;18.80;10.70
1680;DHT22;838;51.794;12.258;2023-07-13T04:02:15;18.80;10.60
1680;DHT22;838;51.794;12.258;2023-07-13T04:04:43;18.80;10.20
1680;DHT22;838;51.794;12.258;2023-07-13T04:07:12;18.60;11.50
1680;DHT22;838;51.794;12.258;2023-07-13T04:09:41;18.40;13.80
1680;DHT22;838;51.794;12.258;2023-07-13T04:12:07;18.30;14.80
1680;DHT22;838;51.794;12.258;2023-07-13T04:14:33;18.20;16.40
1680;DHT22;838;51.794;12.258;2023-07-13T04:16:59;18.20;16.10
1680;DHT22;838;51.794;12.258;2023-07-13T04:19:25;18.30;16.20
1680;DHT22;838;51.794;12.258;2023-07-13T04:21:51;18.30;15.80
1680;DHT22;838;51.794;12.258;2023-07-13T04:24:22;18.40;15.70
1680;DHT22;838;51.794;12.258;2023-07-13T04:26:48;18.50;15.20
1680;DHT22;838;51.794;12.258;2023-07-13T04:29:15;18.60;15.00
1680;DHT22;838;51.794;12.258;2023-07-13T04:31:41;19.00;12.30
1680;DHT22;838;51.794;12.258;2023-07-13T04:34:06;19.30;10.70
1680;DHT22;838;51.794;12.258;2023-07-13T04:36:32;19.40;11.10
1680;DHT22;838;51.794;12.258;2023-07-13T04:38:58;19.30;10.50
1680;DHT22;838;51.794;12.258;2023-07-13T04:41:26;19.30;11.20
1680;DHT22;838;51.794;12.258;2023-07-13T04:43:53;19.30;11.80
1680;DHT22;838;51.794;12.258;2023-07-13T04:46:19;19.40;11.50
1680;DHT22;838;51.794;12.258;2023-07-13T04:48:45;19.50;10.70
1680;DHT22;838;51.794;12.258;2023-07-13T04:51:16;19.20;12.10
1680;DHT22;838;51.794;12.258;2023-07-13T04:53:44;19.10;11.80
1680;DHT22;838;51.794;12.258;2023-07-13T04:56:10;19.40;11.30
1680;DHT22;838;51.794;12.258;2023-07-13T04:58:36;19.50;10.70
1680;DHT22;838;51.794;12.258;2023-07-13T05:01:06;19.70;9.40
1680;DHT22;838;51.794;12.258;2023-07-13T05:03:33;20.00;8.40
1680;DHT22;838;51.794;12.258;2023-07-13T05:06:02;20.10;7.10
1680;DHT22;838;51.794;12.258;2023-07-13T05:08:28;20.30;6.60
1680;DHT22;838;51.794;12.258;2023-07-13T05:10:56;20.20;7.20
1680;DHT22;838;51.794;12.258;2023-07-13T05:13:24;20.00;9.00
1680;DHT22;838;51.794;12.258;2023-07-13T05:16:04;19.90;9.10
1680;DHT22;838;51.794;12.258;2023-07-13T05:18:37;19.70;11.40
1680;DHT22;838;51.794;12.258;2023-07-13T05:21:05;19.70;11.60
1680;DHT22;838;51.794;12.258;2023-07-13T05:23:36;19.80;11.20
1680;DHT22;838;51.794;12.258;2023-07-13T05:26:02;20.00;9.80
1680;DHT22;838;51.794;12.258;2023-07-13T05:28:29;20.10;10.30
1680;DHT22;838;51.794;12.258;2023-07-13T05:30:55;20.20;9.90
1680;DHT22;838;51.794;12.258;2023-07-13T05:33:25;20.30;8.60
1680;DHT22;838;51.794;12.258;2023-07-13T05:35:54;20.40;8.10
1680;DHT22;838;51.794;12.258;2023-07-13T05:38:20;20.50;8.20
1680;DHT22;838;51.794;12.258;2023-07-13T05:40:47;20.60;8.40
1680;DHT22;838;51.794;12.258;2023-07-13T05:43:14;20.60;9.00
1680;DHT22;838;51.794;12.258;2023-07-13T05:45:40;20.60;8.60
1680;DHT22;838;51.794;12.258;2023-07-13T05:48:09;20.60;7.80
1680;DHT22;838;51.794;12.258;2023-07-13T05:50:35;20.80;6.80
1680;DHT22;838;51.794;12.258;2023-07-13T05:53:07;21.00;5.50
1680;DHT22;838;51.794;12.258;2023-07-13T05:55:44;21.00;5.30
1680;DHT22;838;51.794;12.258;2023-07-13T05:58:17;21.10;4.40
1680;DHT22;838;51.794;12.258;2023-07-13T06:00:43;21.30;3.80
1680;DHT22;838;51.794;12.258;2023-07-13T06:03:16;21.40;2.90
1680;DHT22;838;51.794;12.258;2023-07-13T06:05:42;21.60;3.60
1680;DHT22;838;51.794;12.258;2023-07-13T06:08:08;21.70;3.00
1680;DHT22;838;51.794;12.258;2023-07-13T06:10:35;21.90;1.00
1680;DHT22;838;51.794;12.258;2023-07-13T06:13:01;22.20;1.00
1680;DHT22;838;51.794;12.258;2023-07-13T06:15:27;22.60;1.00
1680;DHT22;838;51.794;12.258;2023-07-13T06:17:53;22.70;1.00
1680;DHT22;838;51.794;12.258;2023-07-13T06:20:21;22.90;1.00
1680;DHT22;838;51.794;12.258;2023-07-13T06:22:47;23.20;1.00
1680;DHT22;838;51.794;12.258;2023-07-13T06:25:16;23.30;1.00
1680;DHT22;838;51.794;12.258;2023-07-13T06:27:43;23.20;1.00
1680;DHT22;838;51.794;12.258;2023-07-13T06:30:12;23.20;1.00
1680;DHT22;838;51.794;12.258;2023-07-13T06:32:38;23.40;1.00
1680;DHT22;838;51.794;12.258;2023-07-13T06:35:04;24.00;1.00
1680;DHT22;838;51.794;12.258;2023-07-13T06:37:30;24.10;1.00
1680;DHT22;838;51.794;12.258;2023-07-13T06:39:56;24.20;1.00
1680;DHT22;838;51.794;12.258;2023-07-13T06:42:22;24.50;1.00
1680;DHT22;838;51.794;12.258;2023-07-13T06:44:47;24.40;1.00
1680;DHT22;838;51.794;12.258;2023-07-13T06:47:13;24.30;1.00
1680;DHT22;838;51.794;12.258;2023-07-13T06:49:39;24.30;1.00
1680;DHT22;838;51.794;12.258;2023-07-13T06:52:13;24.40;1.00
1680;DHT22;838;51.794;12.258;2023-07-13T06:54:42;24.30;1.00
1680;DHT22;838;51.794;12.258;2023-07-13T06:57:08;24.10;1.00
1680;DHT22;838;51.794;12.258;2023-07-13T06:59:34;24.40;1.00
1680;DHT22;838;51.794;12.258;2023-07-13T07:01:59;24.70;1.00
1680;DHT22;838;51.794;12.258;2023-07-13T07:04:25;24.80;1.00
1680;DHT22;838;51.794;12.258;2023-07-13T07:06:51;24.50;1.00
1680;DHT22;838;51.794;12.258;2023-07-13T07:09:17;24.10;1.00
1680;DHT22;838;51.794;12.258;2023-07-13T07:11:43;23.70;1.00
1680;DHT22;838;51.794;12.258;2023-07-13T07:14:09;23.50;1.00
1680;DHT22;838;51.794;12.258;2023-07-13T07:16:35;23.60;1.00
1680;DHT22;838;51.794;12.258;2023-07-13T07:19:01;23.60;1.00
1680;DHT22;838;51.794;12.258;2023-07-13T07:21:26;24.10;1.00
1680;DHT22;838;51.794;12.258;2023-07-13T07:23:52;24.20;1.00
1680;DHT22;838;51.794;12.258;2023-07-13T07:26:19;23.90;1.00
1680;DHT22;838;51.794;12.258;2023-07-13T07:28:44;24.00;1.00
1680;DHT22;838;51.794;12.258;2023-07-13T07:31:10;23.90;1.00
1680;DHT22;838;51.794;12.258;2023-07-13T07:33:39;23.60;1.00
1680;DHT22;838;51.794;12.258;2023-07-13T07:36:05;23.60;1.00
1680;DHT22;838;51.794;12.258;2023-07-13T07:38:31;23.50;1.00
1680;DHT22;838;51.794;12.258;2023-07-13T07:41:06;23.30;1.00
1680;DHT22;838;51.794;12.258;2023-07-13T07:43:32;23.60;1.00
1680;DHT22;838;51.794;12.258;2023-07-13T07:45:58;24.30;1.00
1680;DHT22;838;51.794;12.258;2023-07-13T07:48:23;24.90;1.00
1680;DHT22;838;51.794;12.258;2023-07-13T07:50:49;25.10;1.00
1680;DHT22;838;51.794;12.258;2023-07-13T07:53:15;25.10;1.00
1680;DHT22;838;51.794;12.258;2023-07-13T07:55:41;25.50;1.00
1680;DHT22;838;51.794;12.258;2023-07-13T07:58:07;25.50;1.00
1680;DHT22;838;51.794;12.258;2023-07-13T08:00:33;25.20;1.00
1680;DHT22;838;51.794;12.258;2023-07-13T08:03:01;25.10;1.00
1680;DHT22;838;51.794;12.258;2023-07-13T08:05:30;25.20;1.00
1680;DHT22;838;51.794;12.258;2023-07-13T08:07:56;25.80;1.00
1680;DHT22;838;51.794;12.258;2023-07-13T08:10:22;25.90;1.00
1680;DHT22;838;51.794;12.258;2023-07-13T08:12:50;25.70;1.00
1680;DHT22;838;51.794;12.258;2023-07-13T08:15:17;25.80;1.00
1680;DHT22;838;51.794;12.258;2023-07-13T08:17:46;25.80;1.00
1680;DHT22;838;51.794;12.258;2023-07-13T08:20:12;25.40;1.00
1680;DHT22;838;51.794;12.258;2023-07-13T08:22:38;25.20;1.00
1680;DHT22;838;51.794;12.258;2023-07-13T08:25:11;25.20;1.00
1680;DHT22;838;51.794;12.258;2023-07-13T08:27:37;25.60;1.00
1680;DHT22;838;51.794;12.258;2023-07-13T08:30:06;25.80;1.00
1680;DHT22;838;51.794;12.258;2023-07-13T08:32:36;26.00;1.00
1680;DHT22;838;51.794;12.258;2023-07-13T08:35:02;26.10;1.00
1680;DHT22;838;51.794;12.258;2023-07-13T08:37:27;26.70;1.00
1680;DHT22;838;51.794;12.258;2023-07-13T08:39:53;26.60;1.00
1680;DHT22;838;51.794;12.258;2023-07-13T08:42:27;26.30;1.00
1680;DHT22;838;51.794;12.258;2023-07-13T08:48:08;25.90;1.00
1680;DHT22;838;51.794;12.258;2023-07-13T08:50:46;25.80;1.00
1680;DHT22;838;51.794;12.258;2023-07-13T08:53:15;26.10;1.00
1680;DHT22;838;51.794;12.258;2023-07-13T08:55:42;25.80;1.00
1680;DHT22;838;51.794;12.258;2023-07-13T08:58:13;25.60;1.00
1680;DHT22;838;51.794;12.258;2023-07-13T09:00:49;25.30;1.00
1680;DHT22;838;51.794;12.258;2023-07-13T09:03:24;25.10;1.00
1680;DHT22;838;51.794;12.258;2023-07-13T09:05:57;25.10;1.00
1680;DHT22;838;51.794;12.258;2023-07-13T09:11:42;24.70;1.00
1680;DHT22;838;51.794;12.258;2023-07-13T09:16:58;24.10;1.00
1680;DHT22;838;51.794;12.258;2023-07-13T09:19:31;24.20;1.00
1680;DHT22;838;51.794;12.258;2023-07-13T09:21:59;24.40;1.00
1680;DHT22;838;51.794;12.258;2023-07-13T09:26:59;24.90;1.00
1680;DHT22;838;51.794;12.258;2023-07-13T09:29:32;25.10;1.00
1680;DHT22;838;51.794;12.258;2023-07-13T09:32:06;25.20;1.00
1680;DHT22;838;51.794;12.258;2023-07-13T09:34:33;25.20;1.00
1680;DHT22;838;51.794;12.258;2023-07-13T09:37:02;25.50;1.00
1680;DHT22;838;51.794;12.258;2023-07-13T09:39:39;27.10;1.00
1680;DHT22;838;51.794;12.258;2023-07-13T09:42:12;29.10;1.00
1680;DHT22;838;51.794;12.258;2023-07-13T09:47:17;30.60;1.00
1680;DHT22;838;51.794;12.258;2023-07-13T09:49:59;31.20;1.00
1680;DHT22;838;51.794;12.258;2023-07-13T09:52:26;30.80;1.00
1680;DHT22;838;51.794;12.258;2023-07-13T09:54:59;30.10;1.00
1680;DHT22;838;51.794;12.258;2023-07-13T09:57:28;29.60;1.00
1680;DHT22;838;51.794;12.258;2023-07-13T09:59:55;27.90;1.00
1680;DHT22;838;51.794;12.258;2023-07-13T10:02:33;26.40;1.00
1680;DHT22;838;51.794;12.258;2023-07-13T10:05:10;25.40;1.00
1680;DHT22;838;51.794;12.258;2023-07-13T10:07:42;25.10;1.00
1680;DHT22;838;51.794;12.258;2023-07-13T10:10:21;25.30;1.00
1680;DHT22;838;51.794;12.258;2023-07-13T10:12:49;25.60;1.00
1680;DHT22;838;51.794;12.258;2023-07-13T10:15:19;26.00;1.00
1680;DHT22;838;51.794;12.258;2023-07-13T10:17:49;26.30;1.00
1680;DHT22;838;51.794;12.258;2023-07-13T10:20:16;26.50;1.00
1680;DHT22;838;51.794;12.258;2023-07-13T10:23:02;26.70;1.00
1680;DHT22;838;51.794;12.258;2023-07-13T10:25:34;26.20;1.00
1680;DHT22;838;51.794;12.258;2023-07-13T10:28:29;26.10;1.00
1680;DHT22;838;51.794;12.258;2023-07-13T10:30:56;26.30;1.00
1680;DHT22;838;51.794;12.258;2023-07-13T10:33:26;26.40;1.00
1680;DHT22;838;51.794;12.258;2023-07-13T10:38:41;26.30;1.00
1680;DHT22;838;51.794;12.258;2023-07-13T10:41:15;26.10;1.00
1680;DHT22;838;51.794;12.258;2023-07-13T10:43:46;25.90;1.00
1680;DHT22;838;51.794;12.258;2023-07-13T10:46:18;26.00;1.00
1680;DHT22;838;51.794;12.258;2023-07-13T10:48:47;25.90;1.00
1680;DHT22;838;51.794;12.258;2023-07-13T10:51:16;25.90;1.00
1680;DHT22;838;51.794;12.258;2023-07-13T10:53:43;25.90;1.00
1680;DHT22;838;51.794;12.258;2023-07-13T10:56:29;26.10;1.00
1680;DHT22;838;51.794;12.258;2023-07-13T10:59:25;26.30;1.00
1680;DHT22;838;51.794;12.258;2023-07-13T11:04:49;26.90;1.00
1680;DHT22;838;51.794;12.258;2023-07-13T11:07:29;26.90;1.00
1680;DHT22;838;51.794;12.258;2023-07-13T11:10:04;27.20;1.00
1680;DHT22;838;51.794;12.258;2023-07-13T11:12:52;27.00;1.00
1680;DHT22;838;51.794;12.258;2023-07-13T11:15:43;26.80;1.00
1680;DHT22;838;51.794;12.258;2023-07-13T11:18:21;26.50;1.00
1680;DHT22;838;51.794;12.258;2023-07-13T11:20:49;26.30;1.00
1680;DHT22;838;51.794;12.258;2023-07-13T11:25:44;26.50;1.00
1680;DHT22;838;51.794;12.258;2023-07-13T11:30:41;26.90;1.00
1680;DHT22;838;51.794;12.258;2023-07-13T11:36:13;27.10;1.00
1680;DHT22;838;51.794;12.258;2023-07-13T11:38:48;26.90;1.00
1680;DHT22;838;51.794;12.258;2023-07-13T11:41:35;27.30;1.00
1680;DHT22;838;51.794;12.258;2023-07-13T11:44:22;27.30;1.00
1680;DHT22;838;51.794;12.258;2023-07-13T11:46:56;27.00;1.00
1680;DHT22;838;51.794;12.258;2023-07-13T11:49:25;27.00;1.00
1680;DHT22;838;51.794;12.258;2023-07-13T11:51:52;26.90;1.00
1680;DHT22;838;51.794;12.258;2023-07-13T11:54:28;26.80;1.00
1680;DHT22;838;51.794;12.258;2023-07-13T11:56:57;26.90;1.00
1680;DHT22;838;51.794;12.258;2023-07-13T11:59:26;27.30;1.00
1680;DHT22;838;51.794;12.258;2023-07-13T12:01:54;27.70;1.00
1680;DHT22;838;51.794;12.258;2023-07-13T12:04:23;27.70;1.00
1680;DHT22;838;51.794;12.258;2023-07-13T12:07:03;27.50;1.00
1680;DHT22;838;51.794;12.258;2023-07-13T12:09:29;27.60;1.00
1680;DHT22;838;51.794;12.258;2023-07-13T12:11:57;27.60;1.00
1680;DHT22;838;51.794;12.258;2023-07-13T12:14:25;27.40;1.00
1680;DHT22;838;51.794;12.258;2023-07-13T12:16:52;27.00;1.00
1680;DHT22;838;51.794;12.258;2023-07-13T12:19:27;26.50;1.00
1680;DHT22;838;51.794;12.258;2023-07-13T12:21:56;26.40;1.00
1680;DHT22;838;51.794;12.258;2023-07-13T12:24:23;26.50;1.00
1680;DHT22;838;51.794;12.258;2023-07-13T12:29:19;27.00;1.00
1680;DHT22;838;51.794;12.258;2023-07-13T12:31:48;26.90;1.00
1680;DHT22;838;51.794;12.258;2023-07-13T12:34:15;27.10;1.00
1680;DHT22;838;51.794;12.258;2023-07-13T12:41:46;26.80;1.00
1680;DHT22;838;51.794;12.258;2023-07-13T12:44:16;26.50;1.00
1680;DHT22;838;51.794;12.258;2023-07-13T12:47:04;26.70;1.00
1680;DHT22;838;51.794;12.258;2023-07-13T12:49:33;27.00;1.00
1680;DHT22;838;51.794;12.258;2023-07-13T12:52:09;27.10;1.00
1680;DHT22;838;51.794;12.258;2023-07-13T12:54:39;27.00;1.00
1680;DHT22;838;51.794;12.258;2023-07-13T12:57:05;26.80;1.00
1680;DHT22;838;51.794;12.258;2023-07-13T12:59:36;26.90;1.00
1680;DHT22;838;51.794;12.258;2023-07-13T13:02:04;26.80;1.00
1680;DHT22;838;51.794;12.258;2023-07-13T13:04:44;26.70;1.00
1680;DHT22;838;51.794;12.258;2023-07-13T13:07:13;26.70;1.00
1680;DHT22;838;51.794;12.258;2023-07-13T13:09:39;26.90;1.00
1680;DHT22;838;51.794;12.258;2023-07-13T13:12:05;27.10;1.00
1680;DHT22;838;51.794;12.258;2023-07-13T13:14:32;27.10;1.00
1680;DHT22;838;51.794;12.258;2023-07-13T13:17:01;27.10;1.00
1680;DHT22;838;51.794;12.258;2023-07-13T13:19:28;27.30;1.00
1680;DHT22;838;51.794;12.258;2023-07-13T13:21:56;27.10;1.00
1680;DHT22;838;51.794;12.258;2023-07-13T13:24:24;26.80;1.00
1680;DHT22;838;51.794;12.258;2023-07-13T13:26:53;26.80;1.00
1680;DHT22;838;51.794;12.258;2023-07-13T13:29:23;26.70;1.00
1680;DHT22;838;51.794;12.258;2023-07-13T13:31:53;26.90;1.00
1680;DHT22;838;51.794;12.258;2023-07-13T13:34:20;27.00;1.00
1680;DHT22;838;51.794;12.258;2023-07-13T13:36:49;27.10;1.00
1680;DHT22;838;51.794;12.258;2023-07-13T13:39:30;27.40;1.00
1680;DHT22;838;51.794;12.258;2023-07-13T13:41:57;27.60;1.00
1680;DHT22;838;51.794;12.258;2023-07-13T13:44:23;27.70;1.00
1680;DHT22;838;51.794;12.258;2023-07-13T13:46:52;27.60;1.00
1680;DHT22;838;51.794;12.258;2023-07-13T13:49:25;27.80;1.00
1680;DHT22;838;51.794;12.258;2023-07-13T13:51:52;27.90;1.00
1680;DHT22;838;51.794;12.258;2023-07-13T13:54:19;28.00;1.00
1680;DHT22;838;51.794;12.258;2023-07-13T13:56:51;28.10;1.00
1680;DHT22;838;51.794;12.258;2023-07-13T13:59:17;27.60;1.00
1680;DHT22;838;51.794;12.258;2023-07-13T14:01:45;27.30;1.00
1680;DHT22;838;51.794;12.258;2023-07-13T14:04:19;27.30;1.00
1680;DHT22;838;51.794;12.258;2023-07-13T14:06:45;27.70;1.00
1680;DHT22;838;51.794;12.258;2023-07-13T14:09:13;28.20;1.00
1680;DHT22;838;51.794;12.258;2023-07-13T14:11:41;28.10;1.00
1680;DHT22;838;51.794;12.258;2023-07-13T14:14:15;27.60;1.00
1680;DHT22;838;51.794;12.258;2023-07-13T14:16:45;27.00;1.00
1680;DHT22;838;51.794;12.258;2023-07-13T14:19:12;26.90;1.00
1680;DHT22;838;51.794;12.258;2023-07-13T14:21:40;27.00;1.00
1680;DHT22;838;51.794;12.258;2023-07-13T14:24:08;27.20;1.00
1680;DHT22;838;51.794;12.258;2023-07-13T14:26:37;27.20;1.00
1680;DHT22;838;51.794;12.258;2023-07-13T14:29:11;26.90;1.00
1680;DHT22;838;51.794;12.258;2023-07-13T14:31:38;26.60;1.00
1680;DHT22;838;51.794;12.258;2023-07-13T14:34:04;26.10;1.00
1680;DHT22;838;51.794;12.258;2023-07-13T14:36:49;26.10;1.00
1680;DHT22;838;51.794;12.258;2023-07-13T14:39:21;26.30;1.00
1680;DHT22;838;51.794;12.258;2023-07-13T14:41:58;26.40;1.00
1680;DHT22;838;51.794;12.258;2023-07-13T14:44:34;26.70;1.00
1680;DHT22;838;51.794;12.258;2023-07-13T14:47:02;27.00;1.00
1680;DHT22;838;51.794;12.258;2023-07-13T14:49:34;27.50;1.00
1680;DHT22;838;51.794;12.258;2023-07-13T14:52:05;27.30;1.00
1680;DHT22;838;51.794;12.258;2023-07-13T14:54:36;26.70;1.00
1680;DHT22;838;51.794;12.258;2023-07-13T14:57:16;26.60;1.00
1680;DHT22;838;51.794;12.258;2023-07-13T14:59:42;26.40;1.00
1680;DHT22;838;51.794;12.258;2023-07-13T15:02:24;26.40;1.00
1680;DHT22;838;51.794;12.258;2023-07-13T15:04:55;26.70;1.00
1680;DHT22;838;51.794;12.258;2023-07-13T15:07:21;27.00;1.00
1680;DHT22;838;51.794;12.258;2023-07-13T15:09:48;26.70;1.00
1680;DHT22;838;51.794;12.258;2023-07-13T15:12:14;26.60;1.00
1680;DHT22;838;51.794;12.258;2023-07-13T15:14:40;26.50;1.00
1680;DHT22;838;51.794;12.258;2023-07-13T15:20:34;26.80;1.00
1680;DHT22;838;51.794;12.258;2023-07-13T15:23:01;27.10;1.00
1680;DHT22;838;51.794;12.258;2023-07-13T15:25:29;27.10;1.00
1680;DHT22;838;51.794;12.258;2023-07-13T15:27:56;26.90;1.00
1680;DHT22;838;51.794;12.258;2023-07-13T15:30:27;26.80;1.00
1680;DHT22;838;51.794;12.258;2023-07-13T15:32:54;26.70;1.00
1680;DHT22;838;51.794;12.258;2023-07-13T15:35:24;26.70;1.00
1680;DHT22;838;51.794;12.258;2023-07-13T15:37:52;26.80;1.00
1680;DHT22;838;51.794;12.258;2023-07-13T15:40:18;26.90;1.00
1680;DHT22;838;51.794;12.258;2023-07-13T15:42:47;27.00;1.00
1680;DHT22;838;51.794;12.258;2023-07-13T15:45:19;27.20;1.00
1680;DHT22;838;51.794;12.258;2023-07-13T15:47:46;27.30;1.00
1680;DHT22;838;51.794;12.258;2023-07-13T15:50:23;27.20;1.00
1680;DHT22;838;51.794;12.258;2023-07-13T15:52:55;27.10;1.00
1680;DHT22;838;51.794;12.258;2023-07-13T15:55:23;27.20;1.00
1680;DHT22;838;51.794;12.258;2023-07-13T15:57:51;27.50;1.00
1680;DHT22;838;51.794;12.258;2023-07-13T16:00:23;27.70;1.00
1680;DHT22;838;51.794;12.258;2023-07-13T16:02:49;27.90;1.00
1680;DHT22;838;51.794;12.258;2023-07-13T16:05:16;27.80;1.00
1680;DHT22;838;51.794;12.258;2023-07-13T16:07:44;27.70;1.00
1680;DHT22;838;51.794;12.258;2023-07-13T16:10:19;27.70;1.00
1680;DHT22;838;51.794;12.258;2023-07-13T16:12:46;27.60;1.00
1680;DHT22;838;51.794;12.258;2023-07-13T16:15:18;27.50;1.00
1680;DHT22;838;51.794;12.258;2023-07-13T16:17:45;27.20;1.00
1680;DHT22;838;51.794;12.258;2023-07-13T16:20:11;26.90;1.00
1680;DHT22;838;51.794;12.258;2023-07-13T16:22:39;27.20;1.00
1680;DHT22;838;51.794;12.258;2023-07-13T16:25:18;27.40;1.00
1680;DHT22;838;51.794;12.258;2023-07-13T16:27:48;27.40;1.00
1680;DHT22;838;51.794;12.258;2023-07-13T16:30:23;27.00;1.00
1680;DHT22;838;51.794;12.258;2023-07-13T16:32:53;26.70;1.00
1680;DHT22;838;51.794;12.258;2023-07-13T16:35:21;26.60;1.00
1680;DHT22;838;51.794;12.258;2023-07-13T16:37:48;26.40;1.00
1680;DHT22;838;51.794;12.258;2023-07-13T16:40:23;26.40;1.00
1680;DHT22;838;51.794;12.258;2023-07-13T16:42:51;26.50;1.00
1680;DHT22;838;51.794;12.258;2023-07-13T16:45:21;26.70;1.00
1680;DHT22;838;51.794;12.258;2023-07-13T16:47:54;26.70;1.00
1680;DHT22;838;51.794;12.258;2023-07-13T16:50:25;26.70;1.00
1680;DHT22;838;51.794;12.258;2023-07-13T16:52:52;26.40;1.00
1680;DHT22;838;51.794;12.258;2023-07-13T16:55:20;26.40;1.00
1680;DHT22;838;51.794;12.258;2023-07-13T16:57:54;26.50;1.00
1680;DHT22;838;51.794;12.258;2023-07-13T17:00:25;26.60;1.00
1680;DHT22;838;51.794;12.258;2023-07-13T17:02:56;26.90;1.00
1680;DHT22;838;51.794;12.258;2023-07-13T17:05:30;27.00;1.00
1680;DHT22;838;51.794;12.258;2023-07-13T17:07:59;27.20;1.00
1680;DHT22;838;51.794;12.258;2023-07-13T17:10:26;26.90;1.00